Time,TemperatureF,DewpointF,PressureIn,WindDirection,WindDirectionDegrees,WindSpeedMPH,WindSpeedGustMPH,Humidity,HourlyPrecipIn,Conditions,Clouds,dailyrainin,SoftwareType,DateUTC
2013-04-23 00:04:00,37.6,16.0,30.30,ESE,112,0.0,0.0,41,0.00,,---,0.00,VWS V14.01,2013-04-23 07:04:00,
2013-04-23 00:09:00,37.4,15.9,30.30,SE,135,0.0,0.0,41,0.00,,---,0.00,VWS V14.01,2013-04-23 07:09:00,
2013-04-23 00:14:00,37.4,15.9,30.30,ESE,112,0.0,0.0,41,0.00,,---,0.00,VWS V14.01,2013-04-23 07:14:00,
2013-04-23 00:19:00,37.2,16.3,30.30,NE,45,0.0,0.0,42,0.00,,---,0.00,VWS V14.01,2013-04-23 07:19:00,
2013-04-23 00:24:00,37.0,16.1,30.30,SE,135,0.0,0.0,42,0.00,,---,0.00,VWS V14.01,2013-04-23 07:24:00,
2013-04-23 00:29:00,36.9,16.5,30.30,ESE,112,0.0,0.0,43,0.00,,---,0.00,VWS V14.01,2013-04-23 07:29:00,
2013-04-23 00:34:00,37.0,17.2,30.30,SW,225,0.0,0.0,44,0.00,,---,0.00,VWS V14.01,2013-04-23 07:34:00,
2013-04-23 00:39:00,36.9,17.0,30.30,SW,225,0.0,0.0,44,0.00,,---,0.00,VWS V14.01,2013-04-23 07:39:00,
2013-04-23 00:44:00,37.0,17.2,30.30,SW,225,0.0,0.0,44,0.00,,---,0.00,VWS V14.01,2013-04-23 07:44:00,
2013-04-23 00:49:00,37.0,17.2,30.30,NW,315,0.0,0.0,44,0.00,,---,0.00,VWS V14.01,2013-04-23 07:49:00,
2013-04-23 00:55:00,37.0,17.2,30.30,NNE,22,0.0,0.0,44,0.00,,---,0.00,VWS V14.01,2013-04-23 07:55:00,
2013-04-23 01:00:00,37.6,17.1,30.30,NE,45,2.0,2.0,43,0.00,,---,0.00,VWS V14.01,2013-04-23 08:00:00,
2013-04-23 01:05:00,37.2,16.8,30.30,SE,135,0.0,0.0,43,0.00,,---,0.00,VWS V14.01,2013-04-23 08:05:00,
2013-04-23 01:10:00,36.9,16.5,30.30,NNW,338,0.0,0.0,43,0.00,,---,0.00,VWS V14.01,2013-04-23 08:10:00,
2013-04-23 01:15:00,36.7,16.3,30.30,South,180,0.0,0.0,43,0.00,,---,0.00,VWS V14.01,2013-04-23 08:15:00,
2013-04-23 01:20:00,36.1,16.4,30.30,SSE,158,0.0,0.0,44,0.00,,---,0.00,VWS V14.01,2013-04-23 08:20:00,
2013-04-23 01:25:00,35.6,16.4,30.30,SSE,158,0.0,0.0,45,0.00,,---,0.00,VWS V14.01,2013-04-23 08:25:00,
2013-04-23 01:30:00,35.6,16.4,30.30,NNW,338,0.0,0.0,45,0.00,,---,0.00,VWS V14.01,2013-04-23 08:30:00,
2013-04-23 01:35:00,35.4,16.7,30.33,SE,135,3.1,3.1,46,0.00,,---,0.00,VWS V14.01,2013-04-23 08:35:00,
2013-04-23 01:40:00,35.4,17.7,30.33,SSW,202,2.2,2.2,48,0.00,,---,0.00,VWS V14.01,2013-04-23 08:40:00,
2013-04-23 01:45:00,35.2,17.0,30.33,SSW,202,0.0,0.0,47,0.00,,---,0.00,VWS V14.01,2013-04-23 08:45:00,
2013-04-23 01:50:00,35.4,16.7,30.30,East,90,0.0,0.0,46,0.00,,---,0.00,VWS V14.01,2013-04-23 08:50:00,
2013-04-23 01:55:00,34.9,16.7,30.30,SSW,202,0.0,0.0,47,0.00,,---,0.00,VWS V14.01,2013-04-23 08:55:00,
2013-04-23 02:00:00,34.7,18.0,30.30,SSE,158,0.0,0.0,50,0.00,,---,0.00,VWS V14.01,2013-04-23 09:00:00,
2013-04-23 02:05:00,34.5,17.3,30.30,NNW,338,0.0,0.0,49,0.00,,---,0.00,VWS V14.01,2013-04-23 09:05:00,
2013-04-23 02:10:00,34.3,18.1,30.30,East,90,1.1,1.1,51,0.00,,---,0.00,VWS V14.01,2013-04-23 09:10:00,
2013-04-23 02:16:00,34.3,18.1,30.30,West,270,0.0,0.0,51,0.00,,---,0.00,VWS V14.01,2013-04-23 09:16:00,
2013-04-23 02:21:00,34.0,18.2,30.30,East,90,0.0,0.0,52,0.00,,---,0.00,VWS V14.01,2013-04-23 09:21:00,
2013-04-23 02:26:00,33.8,18.0,30.30,NE,45,2.5,2.5,52,0.00,,---,0.00,VWS V14.01,2013-04-23 09:26:00,
2013-04-23 02:31:00,33.6,18.3,30.30,NNE,22,0.0,0.0,53,0.00,,---,0.00,VWS V14.01,2013-04-23 09:31:00,
2013-04-23 02:36:00,33.4,18.6,30.30,North,0,2.2,2.2,54,0.00,,---,0.00,VWS V14.01,2013-04-23 09:36:00,
2013-04-23 02:41:00,33.6,19.2,30.30,SW,225,0.0,0.0,55,0.00,,---,0.00,VWS V14.01,2013-04-23 09:41:00,
2013-04-23 02:46:00,33.3,18.9,30.30,East,90,0.0,0.0,55,0.00,,---,0.00,VWS V14.01,2013-04-23 09:46:00,
2013-04-23 02:51:00,33.3,19.3,30.27,South,180,2.5,2.5,56,0.00,,---,0.00,VWS V14.01,2013-04-23 09:51:00,
2013-04-23 02:56:00,33.3,19.7,30.27,SSW,202,2.9,2.9,57,0.00,,---,0.00,VWS V14.01,2013-04-23 09:56:00,
2013-04-23 03:01:00,33.1,19.1,30.27,SE,135,1.1,1.1,56,0.00,,---,0.00,VWS V14.01,2013-04-23 10:01:00,
2013-04-23 03:06:00,32.7,18.4,30.30,NNE,22,0.0,0.0,55,0.00,,---,0.00,VWS V14.01,2013-04-23 10:06:00,
2013-04-23 03:11:00,32.5,18.2,30.30,SE,135,2.0,2.0,55,0.00,,---,0.00,VWS V14.01,2013-04-23 10:11:00,
2013-04-23 03:16:00,32.4,18.4,30.30,WSW,248,0.0,0.0,56,0.00,,---,0.00,VWS V14.01,2013-04-23 10:16:00,
2013-04-23 03:21:00,32.2,17.8,30.30,NE,45,1.3,1.3,55,0.00,,---,0.00,VWS V14.01,2013-04-23 10:21:00,
2013-04-23 03:27:00,32.2,18.3,30.30,SSW,202,0.0,0.0,56,0.00,,---,0.00,VWS V14.01,2013-04-23 10:27:00,
2013-04-23 03:32:00,32.0,18.1,30.30,NNW,338,1.1,1.1,56,0.00,,---,0.00,VWS V14.01,2013-04-23 10:32:00,
2013-04-23 03:37:00,32.0,18.9,30.33,South,180,1.6,1.6,58,0.00,,---,0.00,VWS V14.01,2013-04-23 10:37:00,
2013-04-23 03:42:00,31.6,18.6,30.33,South,180,0.0,0.0,58,0.00,,---,0.00,VWS V14.01,2013-04-23 10:42:00,
2013-04-23 03:47:00,31.6,18.6,30.33,SSW,202,0.0,0.0,58,0.00,,---,0.00,VWS V14.01,2013-04-23 10:47:00,
2013-04-23 03:52:00,31.5,18.4,30.30,SW,225,1.3,1.3,58,0.00,,---,0.00,VWS V14.01,2013-04-23 10:52:00,
2013-04-23 03:57:00,30.7,17.7,30.30,SW,225,0.0,0.0,58,0.00,,---,0.00,VWS V14.01,2013-04-23 10:57:00,
2013-04-23 04:02:00,30.2,17.2,30.30,SW,225,0.0,0.0,58,0.00,,---,0.00,VWS V14.01,2013-04-23 11:02:00,
2013-04-23 04:25:00,29.8,18.0,30.30,NNE,22,0.0,0.0,61,0.00,,---,0.00,VWS V14.01,2013-04-23 11:25:00,
2013-04-23 04:30:00,30.2,19.1,30.30,SSW,202,0.0,0.0,63,0.00,,---,0.00,VWS V14.01,2013-04-23 11:30:00,
2013-04-23 04:35:00,30.0,19.0,30.27,West,270,0.0,0.0,63,0.00,,---,0.00,VWS V14.01,2013-04-23 11:35:00,
2013-04-23 04:41:00,29.5,18.1,30.27,SSW,202,0.0,0.0,62,0.00,,---,0.00,VWS V14.01,2013-04-23 11:41:00,
2013-04-23 04:46:00,29.3,17.9,30.27,SW,225,0.0,0.0,62,0.00,,---,0.00,VWS V14.01,2013-04-23 11:46:00,
2013-04-23 04:51:00,29.1,17.7,30.27,SW,225,0.0,0.0,62,0.00,,---,0.00,VWS V14.01,2013-04-23 11:51:00,
2013-04-23 04:56:00,28.6,17.2,30.27,NNE,22,0.0,0.0,62,0.00,,---,0.00,VWS V14.01,2013-04-23 11:56:00,
2013-04-23 05:01:00,28.6,17.2,30.27,SW,225,0.0,0.0,62,0.00,,---,0.00,VWS V14.01,2013-04-23 12:01:00,
2013-04-23 05:06:00,28.8,18.5,30.24,SSE,158,0.0,0.0,65,0.00,,---,0.00,VWS V14.01,2013-04-23 12:06:00,
2013-04-23 05:11:00,28.8,18.5,30.24,ENE,68,0.0,0.0,65,0.00,,---,0.00,VWS V14.01,2013-04-23 12:11:00,
2013-04-23 05:16:00,28.8,18.1,30.24,South,180,0.0,0.0,64,0.00,,---,0.00,VWS V14.01,2013-04-23 12:16:00,
2013-04-23 05:21:00,28.8,18.1,30.27,SW,225,0.0,0.0,64,0.00,,---,0.00,VWS V14.01,2013-04-23 12:21:00,
2013-04-23 05:26:00,28.9,18.7,30.27,SSE,158,0.0,0.0,65,0.00,,---,0.00,VWS V14.01,2013-04-23 12:26:00,
2013-04-23 05:32:00,28.9,18.3,30.27,West,270,0.0,0.0,64,0.00,,---,0.00,VWS V14.01,2013-04-23 12:32:00,
2013-04-23 05:37:00,28.8,18.1,30.21,NNW,338,0.0,0.0,64,0.00,,---,0.00,VWS V14.01,2013-04-23 12:37:00,
2013-04-23 05:42:00,28.8,18.1,30.21,SSW,202,0.0,0.0,64,0.00,,---,0.00,VWS V14.01,2013-04-23 12:42:00,
2013-04-23 05:47:00,29.1,19.5,30.21,South,180,0.0,0.0,67,0.00,,---,0.00,VWS V14.01,2013-04-23 12:47:00,
2013-04-23 05:52:00,28.9,19.0,30.27,West,270,0.0,0.0,66,0.00,,---,0.00,VWS V14.01,2013-04-23 12:52:00,
2013-04-23 05:57:00,28.8,18.9,30.27,WSW,248,0.0,0.0,66,0.00,,---,0.00,VWS V14.01,2013-04-23 12:57:00,
2013-04-23 06:02:00,28.8,18.5,30.27,WSW,248,0.0,0.0,65,0.00,,---,0.00,VWS V14.01,2013-04-23 13:02:00,
2013-04-23 06:07:00,28.6,18.3,30.24,SW,225,0.0,0.0,65,0.00,,---,0.00,VWS V14.01,2013-04-23 13:07:00,
2013-04-23 06:12:00,28.8,18.5,30.24,SW,225,0.0,0.0,65,0.00,,---,0.00,VWS V14.01,2013-04-23 13:12:00,
2013-04-23 06:17:00,28.9,19.0,30.24,SW,225,0.0,0.0,66,0.00,,---,0.00,VWS V14.01,2013-04-23 13:17:00,
2013-04-23 06:22:00,29.5,19.9,30.24,SSW,202,1.1,1.1,67,0.00,,---,0.00,VWS V14.01,2013-04-23 13:22:00,
2013-04-23 06:27:00,29.8,20.9,30.24,SW,225,0.9,0.9,69,0.00,,---,0.00,VWS V14.01,2013-04-23 13:27:00,
2013-04-23 06:32:00,30.2,20.6,30.24,SW,225,0.0,0.0,67,0.00,,---,0.00,VWS V14.01,2013-04-23 13:32:00,
2013-04-23 06:37:00,30.4,20.4,30.24,WSW,248,0.0,0.0,66,0.00,,---,0.00,VWS V14.01,2013-04-23 13:37:00,
2013-04-23 06:42:00,30.9,20.5,30.24,SW,225,0.0,0.0,65,0.00,,---,0.00,VWS V14.01,2013-04-23 13:42:00,
2013-04-23 06:47:00,31.1,20.7,30.24,WSW,248,0.0,0.0,65,0.00,,---,0.00,VWS V14.01,2013-04-23 13:47:00,
2013-04-23 06:53:00,31.6,20.9,30.24,SSW,202,0.0,0.0,64,0.00,,---,0.00,VWS V14.01,2013-04-23 13:53:00,
2013-04-23 06:58:00,32.0,21.2,30.24,NW,315,2.7,2.7,64,0.00,,---,0.00,VWS V14.01,2013-04-23 13:58:00,
2013-04-23 07:03:00,32.5,21.7,30.24,WSW,248,1.3,1.3,64,0.00,,---,0.00,VWS V14.01,2013-04-23 14:03:00,
2013-04-23 07:08:00,33.1,22.2,30.24,SW,225,0.0,0.0,64,0.00,,---,0.00,VWS V14.01,2013-04-23 14:08:00,
2013-04-23 07:13:00,33.6,22.4,30.24,WSW,248,0.0,0.0,63,0.00,,---,0.00,VWS V14.01,2013-04-23 14:13:00,
2013-04-23 07:18:00,34.3,22.7,30.24,NE,45,1.1,1.1,62,0.00,,---,0.00,VWS V14.01,2013-04-23 14:18:00,
2013-04-23 07:23:00,35.1,23.0,30.24,NE,45,4.3,4.3,61,0.00,,---,0.00,VWS V14.01,2013-04-23 14:23:00,
2013-04-23 07:28:00,35.6,23.1,30.24,NNW,338,0.9,0.9,60,0.00,,---,0.00,VWS V14.01,2013-04-23 14:28:00,
2013-04-23 07:33:00,36.1,23.2,30.24,NE,45,1.3,1.3,59,0.00,,---,0.00,VWS V14.01,2013-04-23 14:33:00,
2013-04-23 07:38:00,36.7,23.7,30.24,NW,315,0.0,0.0,59,0.00,,---,0.00,VWS V14.01,2013-04-23 14:38:00,
2013-04-23 07:43:00,36.9,23.5,30.24,SSE,158,2.7,2.7,58,0.00,,---,0.00,VWS V14.01,2013-04-23 14:43:00,
2013-04-23 07:48:00,37.4,23.1,30.24,ENE,68,2.7,2.7,56,0.00,,---,0.00,VWS V14.01,2013-04-23 14:48:00,
2013-04-23 07:53:00,37.6,22.9,30.24,East,90,0.0,0.0,55,0.00,,---,0.00,VWS V14.01,2013-04-23 14:53:00,
2013-04-23 07:58:00,38.3,23.6,30.24,NNE,22,0.0,0.0,55,0.00,,---,0.00,VWS V14.01,2013-04-23 14:58:00,
2013-04-23 08:03:00,38.8,23.6,30.24,SW,225,0.0,0.0,54,0.00,,---,0.00,VWS V14.01,2013-04-23 15:03:00,
2013-04-23 08:09:00,39.6,24.3,30.24,SW,225,0.0,0.0,54,0.00,,---,0.00,VWS V14.01,2013-04-23 15:09:00,
2013-04-23 08:14:00,40.3,24.5,30.24,SW,225,0.0,0.0,53,0.00,,---,0.00,VWS V14.01,2013-04-23 15:14:00,
2013-04-23 08:19:00,40.6,24.4,30.24,SSW,202,0.0,0.0,52,0.00,,---,0.00,VWS V14.01,2013-04-23 15:19:00,
2013-04-23 08:24:00,41.4,24.1,30.24,South,180,0.0,0.0,50,0.00,,---,0.00,VWS V14.01,2013-04-23 15:24:00,
2013-04-23 08:29:00,41.9,24.6,30.24,North,0,0.0,0.0,50,0.00,,---,0.00,VWS V14.01,2013-04-23 15:29:00,
2013-04-23 08:34:00,42.3,25.4,30.24,NNW,338,0.0,0.0,51,0.00,,---,0.00,VWS V14.01,2013-04-23 15:34:00,
2013-04-23 08:39:00,42.8,24.5,30.21,North,0,0.0,0.0,48,0.00,,---,0.00,VWS V14.01,2013-04-23 15:39:00,
2013-04-23 08:44:00,43.3,25.0,30.21,NE,45,0.0,0.0,48,0.00,,---,0.00,VWS V14.01,2013-04-23 15:44:00,
2013-04-23 08:49:00,44.1,25.1,30.21,North,0,0.0,0.0,47,0.00,,---,0.00,VWS V14.01,2013-04-23 15:49:00,
2013-04-23 08:54:00,44.2,23.7,30.27,NNW,338,1.3,1.3,44,0.00,,---,0.00,VWS V14.01,2013-04-23 15:54:00,
2013-04-23 08:59:00,44.8,23.7,30.27,NNW,338,0.0,0.0,43,0.00,,---,0.00,VWS V14.01,2013-04-23 15:59:00,
2013-04-23 09:04:00,45.1,23.4,30.27,NNW,338,0.0,0.0,42,0.00,,---,0.00,VWS V14.01,2013-04-23 16:04:00,
2013-04-23 09:09:00,45.7,23.9,30.24,East,90,0.0,0.0,42,0.00,,---,0.00,VWS V14.01,2013-04-23 16:09:00,
2013-04-23 09:14:00,46.2,23.8,30.24,East,90,0.0,0.0,41,0.00,,---,0.00,VWS V14.01,2013-04-23 16:14:00,
2013-04-23 09:19:00,46.6,24.2,30.24,ESE,112,0.0,0.0,41,0.00,,---,0.00,VWS V14.01,2013-04-23 16:19:00,
2013-04-23 09:24:00,46.8,23.7,30.24,SSW,202,0.0,0.0,40,0.00,,---,0.00,VWS V14.01,2013-04-23 16:24:00,
2013-04-23 09:29:00,47.3,23.6,30.24,SSW,202,0.0,0.0,39,0.00,,---,0.00,VWS V14.01,2013-04-23 16:29:00,
2013-04-23 09:34:00,47.5,23.2,30.24,ESE,112,0.0,0.0,38,0.00,,---,0.00,VWS V14.01,2013-04-23 16:34:00,
2013-04-23 09:40:00,48.4,24.0,30.24,WSW,248,0.0,0.0,38,0.00,,---,0.00,VWS V14.01,2013-04-23 16:40:00,
2013-04-23 09:45:00,48.7,24.3,30.24,WNW,292,0.0,0.0,38,0.00,,---,0.00,VWS V14.01,2013-04-23 16:45:00,
2013-04-23 09:50:00,49.1,24.0,30.24,SW,225,0.0,0.0,37,0.00,,---,0.00,VWS V14.01,2013-04-23 16:50:00,
2013-04-23 09:55:00,49.5,24.3,30.24,East,90,0.0,0.0,37,0.00,,---,0.00,VWS V14.01,2013-04-23 16:55:00,
2013-04-23 10:00:00,48.9,22.5,30.24,South,180,0.0,0.0,35,0.00,,---,0.00,VWS V14.01,2013-04-23 17:00:00,
2013-04-23 10:05:00,48.7,22.3,30.24,WSW,248,3.6,3.6,35,0.00,,---,0.00,VWS V14.01,2013-04-23 17:05:00,
2013-04-23 10:10:00,48.0,21.0,30.24,SW,225,2.9,2.9,34,0.00,,---,0.00,VWS V14.01,2013-04-23 17:10:00,
2013-04-23 10:15:00,48.0,20.3,30.24,SW,225,5.8,5.8,33,0.00,,---,0.00,VWS V14.01,2013-04-23 17:15:00,
2013-04-23 10:20:00,48.4,20.6,30.24,WSW,248,1.6,1.6,33,0.00,,---,0.00,VWS V14.01,2013-04-23 17:20:00,
2013-04-23 10:25:00,48.9,21.8,30.24,SW,225,3.1,3.1,34,0.00,,---,0.00,VWS V14.01,2013-04-23 17:25:00,
2013-04-23 10:30:00,49.6,22.4,30.24,WSW,248,4.5,4.5,34,0.00,,---,0.00,VWS V14.01,2013-04-23 17:30:00,
2013-04-23 10:35:00,50.5,23.2,30.24,WSW,248,1.6,1.6,34,0.00,,---,0.00,VWS V14.01,2013-04-23 17:35:00,
2013-04-23 10:40:00,50.9,23.5,30.24,SW,225,3.4,3.4,34,0.00,,---,0.00,VWS V14.01,2013-04-23 17:40:00,
2013-04-23 10:45:00,51.6,24.2,30.24,WSW,248,8.5,8.5,34,0.00,,---,0.00,VWS V14.01,2013-04-23 17:45:00,
2013-04-23 10:51:00,52.2,24.0,30.24,East,90,2.2,2.2,33,0.00,,---,0.00,VWS V14.01,2013-04-23 17:51:00,
2013-04-23 10:56:00,53.1,24.0,30.24,WSW,248,4.0,4.0,32,0.00,,---,0.00,VWS V14.01,2013-04-23 17:56:00,
2013-04-23 11:01:00,54.3,26.6,30.24,WSW,248,2.7,2.7,34,0.00,,---,0.00,VWS V14.01,2013-04-23 18:01:00,
2013-04-23 11:06:00,55.4,25.3,30.24,WSW,248,4.7,4.7,31,0.00,,---,0.00,VWS V14.01,2013-04-23 18:06:00,
2013-04-23 11:11:00,55.6,24.7,30.24,SSW,202,2.2,2.2,30,0.00,,---,0.00,VWS V14.01,2013-04-23 18:11:00,
2013-04-23 11:16:00,54.7,23.9,30.24,WSW,248,4.0,4.0,30,0.00,,---,0.00,VWS V14.01,2013-04-23 18:16:00,
2013-04-23 11:21:00,54.7,23.9,30.24,SW,225,1.6,1.6,30,0.00,,---,0.00,VWS V14.01,2013-04-23 18:21:00,
2013-04-23 11:26:00,54.3,22.8,30.24,WSW,248,3.4,3.4,29,0.00,,---,0.00,VWS V14.01,2013-04-23 18:26:00,
2013-04-23 11:31:00,55.4,23.7,30.24,WSW,248,0.0,0.0,29,0.00,,---,0.00,VWS V14.01,2013-04-23 18:31:00,
2013-04-23 11:36:00,55.8,24.8,30.24,West,270,0.0,0.0,30,0.00,,---,0.00,VWS V14.01,2013-04-23 18:36:00,
2013-04-23 11:41:00,56.7,24.8,30.24,SW,225,0.0,0.0,29,0.00,,---,0.00,VWS V14.01,2013-04-23 18:41:00,
2013-04-23 11:46:00,57.7,24.9,30.24,SW,225,4.0,4.0,28,0.00,,---,0.00,VWS V14.01,2013-04-23 18:46:00,
2013-04-23 11:51:00,58.3,25.3,30.24,SW,225,4.3,4.3,28,0.00,,---,0.00,VWS V14.01,2013-04-23 18:51:00,
2013-04-23 11:56:00,58.3,25.3,30.24,SSE,158,1.3,1.3,28,0.00,,---,0.00,VWS V14.01,2013-04-23 18:56:00,
2013-04-23 12:01:00,58.5,25.5,30.24,WSW,248,0.0,0.0,28,0.00,,---,0.00,VWS V14.01,2013-04-23 19:01:00,
2013-04-23 12:07:00,60.1,26.0,30.24,South,180,3.6,3.6,27,0.00,,---,0.00,VWS V14.01,2013-04-23 19:07:00,
2013-04-23 12:12:00,59.0,24.2,30.24,SSE,158,4.3,4.3,26,0.00,,---,0.00,VWS V14.01,2013-04-23 19:12:00,
2013-04-23 12:17:00,60.3,26.2,30.24,WSW,248,0.0,0.0,27,0.00,,---,0.00,VWS V14.01,2013-04-23 19:17:00,
2013-04-23 12:22:00,61.0,25.9,30.21,WNW,292,1.3,1.3,26,0.00,,---,0.00,VWS V14.01,2013-04-23 19:22:00,
2013-04-23 12:27:00,60.1,25.1,30.21,SW,225,2.5,2.5,26,0.00,,---,0.00,VWS V14.01,2013-04-23 19:27:00,
2013-04-23 12:32:00,59.9,25.0,30.21,South,180,3.6,3.6,26,0.00,,---,0.00,VWS V14.01,2013-04-23 19:32:00,
2013-04-23 12:37:00,60.4,25.4,30.21,WSW,248,2.5,2.5,26,0.00,,---,0.00,VWS V14.01,2013-04-23 19:37:00,
2013-04-23 12:42:00,61.9,25.7,30.21,SW,225,0.0,0.0,25,0.00,,---,0.00,VWS V14.01,2013-04-23 19:42:00,
2013-04-23 12:47:00,61.3,25.2,30.21,NW,315,3.4,3.4,25,0.00,,---,0.00,VWS V14.01,2013-04-23 19:47:00,
2013-04-23 12:52:00,60.4,25.4,30.21,NNW,338,3.4,3.4,26,0.00,,---,0.00,VWS V14.01,2013-04-23 19:52:00,
2013-04-23 12:57:00,62.2,26.0,30.21,WNW,292,0.0,0.0,25,0.00,,---,0.00,VWS V14.01,2013-04-23 19:57:00,
2013-04-23 13:02:00,61.2,25.1,30.21,NNW,338,6.5,6.5,25,0.00,,---,0.00,VWS V14.01,2013-04-23 20:02:00,
2013-04-23 13:07:00,61.0,24.9,30.18,NNW,338,4.9,4.9,25,0.00,,---,0.00,VWS V14.01,2013-04-23 20:07:00,
2013-04-23 13:12:00,60.8,24.8,30.18,North,0,4.7,4.7,25,0.00,,---,0.00,VWS V14.01,2013-04-23 20:12:00,
2013-04-23 13:18:00,62.1,25.9,30.18,West,270,3.6,3.6,25,0.00,,---,0.00,VWS V14.01,2013-04-23 20:18:00,
2013-04-23 13:23:00,60.8,24.8,30.18,WSW,248,5.4,5.4,25,0.00,,---,0.00,VWS V14.01,2013-04-23 20:23:00,
2013-04-23 13:28:00,61.5,25.4,30.18,WNW,292,3.4,3.4,25,0.00,,---,0.00,VWS V14.01,2013-04-23 20:28:00,
2013-04-23 13:33:00,61.0,24.9,30.18,North,0,1.6,1.6,25,0.00,,---,0.00,VWS V14.01,2013-04-23 20:33:00,
2013-04-23 13:38:00,62.6,25.3,30.15,North,0,3.8,3.8,24,0.00,,---,0.00,VWS V14.01,2013-04-23 20:38:00,
2013-04-23 13:43:00,62.6,25.3,30.15,East,90,1.1,1.1,24,0.00,,---,0.00,VWS V14.01,2013-04-23 20:43:00,
2013-04-23 13:48:00,62.8,25.5,30.15,NW,315,4.9,4.9,24,0.00,,---,0.00,VWS V14.01,2013-04-23 20:48:00,
2013-04-23 13:53:00,63.0,25.6,30.18,North,0,2.7,2.7,24,0.00,,---,0.00,VWS V14.01,2013-04-23 20:53:00,
2013-04-23 13:58:00,63.0,25.6,30.18,NNW,338,4.0,4.0,24,0.00,,---,0.00,VWS V14.01,2013-04-23 20:58:00,
2013-04-23 14:03:00,61.7,24.6,30.18,NNW,338,3.4,3.4,24,0.00,,---,0.00,VWS V14.01,2013-04-23 21:03:00,
2013-04-23 14:08:00,63.1,25.8,30.18,North,0,3.1,3.1,24,0.00,,---,0.00,VWS V14.01,2013-04-23 21:08:00,
2013-04-23 14:13:00,63.0,25.6,30.18,West,270,4.3,4.3,24,0.00,,---,0.00,VWS V14.01,2013-04-23 21:13:00,
2013-04-23 14:18:00,63.5,26.1,30.18,NNW,338,6.3,6.3,24,0.00,,---,0.00,VWS V14.01,2013-04-23 21:18:00,
2013-04-23 14:23:00,63.0,25.6,30.18,WNW,292,4.0,4.0,24,0.00,,---,0.00,VWS V14.01,2013-04-23 21:23:00,
2013-04-23 14:28:00,63.5,26.1,30.18,North,0,3.6,3.6,24,0.00,,---,0.00,VWS V14.01,2013-04-23 21:28:00,
2013-04-23 14:34:00,63.9,26.4,30.18,NW,315,4.0,4.0,24,0.00,,---,0.00,VWS V14.01,2013-04-23 21:34:00,
2013-04-23 14:39:00,63.0,25.6,30.15,NW,315,3.4,3.4,24,0.00,,---,0.00,VWS V14.01,2013-04-23 21:39:00,
2013-04-23 14:44:00,64.8,26.1,30.15,SW,225,0.0,0.0,23,0.00,,---,0.00,VWS V14.01,2013-04-23 21:44:00,
2013-04-23 14:49:00,63.9,25.4,30.15,WSW,248,3.6,3.6,23,0.00,,---,0.00,VWS V14.01,2013-04-23 21:49:00,
2013-04-23 14:54:00,64.4,25.8,30.15,West,270,7.8,7.8,23,0.00,,---,0.00,VWS V14.01,2013-04-23 21:54:00,
2013-04-23 14:59:00,64.8,26.1,30.15,NW,315,1.6,1.6,23,0.00,,---,0.00,VWS V14.01,2013-04-23 21:59:00,
2013-04-23 15:04:00,63.9,26.4,30.15,NNE,22,2.9,2.9,24,0.00,,---,0.00,VWS V14.01,2013-04-23 22:04:00,
2013-04-23 15:09:00,63.5,26.1,30.15,NE,45,5.6,5.6,24,0.00,,---,0.00,VWS V14.01,2013-04-23 22:09:00,
2013-04-23 15:14:00,64.0,26.5,30.15,North,0,2.9,2.9,24,0.00,,---,0.00,VWS V14.01,2013-04-23 22:14:00,
2013-04-23 15:19:00,64.0,26.5,30.15,NNE,22,4.3,4.3,24,0.00,,---,0.00,VWS V14.01,2013-04-23 22:19:00,
2013-04-23 15:24:00,64.6,26.0,30.12,North,0,0.0,0.0,23,0.00,,---,0.00,VWS V14.01,2013-04-23 22:24:00,
2013-04-23 15:29:00,64.9,26.3,30.12,SSW,202,0.0,0.0,23,0.00,,---,0.00,VWS V14.01,2013-04-23 22:29:00,
2013-04-23 15:34:00,64.0,26.5,30.12,NNW,338,1.6,1.6,24,0.00,,---,0.00,VWS V14.01,2013-04-23 22:34:00,
2013-04-23 15:39:00,64.6,26.0,30.15,North,0,4.0,4.0,23,0.00,,---,0.00,VWS V14.01,2013-04-23 22:39:00,
2013-04-23 15:44:00,63.0,24.6,30.15,North,0,5.8,5.8,23,0.00,,---,0.00,VWS V14.01,2013-04-23 22:44:00,
2013-04-23 15:50:00,63.5,25.1,30.15,NW,315,5.6,5.6,23,0.00,,---,0.00,VWS V14.01,2013-04-23 22:50:00,
2013-04-23 15:55:00,64.4,25.8,30.15,SSW,202,1.3,1.3,23,0.00,,---,0.00,VWS V14.01,2013-04-23 22:55:00,
2013-04-23 16:00:00,61.5,24.4,30.15,West,270,2.9,2.9,24,0.00,,---,0.00,VWS V14.01,2013-04-23 23:00:00,
2013-04-23 16:05:00,61.9,24.7,30.12,North,0,5.4,5.4,24,0.00,,---,0.00,VWS V14.01,2013-04-23 23:05:00,
2013-04-23 16:10:00,59.7,22.9,30.12,North,0,3.4,3.4,24,0.00,,---,0.00,VWS V14.01,2013-04-23 23:10:00,
2013-04-23 16:15:00,59.7,22.9,30.12,West,270,4.7,4.7,24,0.00,,---,0.00,VWS V14.01,2013-04-23 23:15:00,
2013-04-23 16:20:00,61.3,24.3,30.12,West,270,6.0,6.0,24,0.00,,---,0.00,VWS V14.01,2013-04-23 23:20:00,
2013-04-23 16:25:00,59.5,22.7,30.12,WNW,292,3.6,3.6,24,0.00,,---,0.00,VWS V14.01,2013-04-23 23:25:00,
2013-04-23 16:30:00,58.5,21.8,30.12,North,0,2.0,2.0,24,0.00,,---,0.00,VWS V14.01,2013-04-23 23:30:00,
2013-04-23 16:35:00,58.1,22.5,30.12,NW,315,5.8,5.8,25,0.00,,---,0.00,VWS V14.01,2013-04-23 23:35:00,
2013-04-23 16:40:00,57.9,22.3,30.12,NNW,338,2.7,2.7,25,0.00,,---,0.00,VWS V14.01,2013-04-23 23:40:00,
2013-04-23 16:45:00,57.7,22.2,30.12,NNW,338,6.5,6.5,25,0.00,,---,0.00,VWS V14.01,2013-04-23 23:45:00,
2013-04-23 16:50:00,57.6,22.0,30.12,NNW,338,0.0,0.0,25,0.00,,---,0.00,VWS V14.01,2013-04-23 23:50:00,
2013-04-23 16:55:00,57.9,22.3,30.12,North,0,1.1,1.1,25,0.00,,---,0.00,VWS V14.01,2013-04-23 23:55:00,
2013-04-23 17:01:00,57.6,22.0,30.12,North,0,4.0,4.0,25,0.00,,---,0.00,VWS V14.01,2013-04-24 00:01:00,
2013-04-23 17:06:00,58.1,22.5,30.12,NE,45,4.5,4.5,25,0.00,,---,0.00,VWS V14.01,2013-04-24 00:06:00,
2013-04-23 17:11:00,59.2,22.4,30.12,NNW,338,1.3,1.3,24,0.00,,---,0.00,VWS V14.01,2013-04-24 00:11:00,
2013-04-23 17:16:00,59.0,22.3,30.12,NNW,338,4.3,4.3,24,0.00,,---,0.00,VWS V14.01,2013-04-24 00:16:00,
2013-04-23 17:21:00,59.9,24.0,30.12,North,0,3.8,3.8,25,0.00,,---,0.00,VWS V14.01,2013-04-24 00:21:00,
2013-04-23 17:26:00,60.8,23.8,30.12,NW,315,3.1,3.1,24,0.00,,---,0.00,VWS V14.01,2013-04-24 00:26:00,
2013-04-23 17:31:00,61.0,24.0,30.12,North,0,2.9,2.9,24,0.00,,---,0.00,VWS V14.01,2013-04-24 00:31:00,
2013-04-23 17:36:00,61.5,24.4,30.12,North,0,3.6,3.6,24,0.00,,---,0.00,VWS V14.01,2013-04-24 00:36:00,
2013-04-23 17:41:00,61.9,24.7,30.12,North,0,3.4,3.4,24,0.00,,---,0.00,VWS V14.01,2013-04-24 00:41:00,
2013-04-23 17:46:00,62.1,24.9,30.12,WNW,292,4.0,4.0,24,0.00,,---,0.00,VWS V14.01,2013-04-24 00:46:00,
2013-04-23 17:51:00,61.5,24.4,30.12,WNW,292,4.0,4.0,24,0.00,,---,0.00,VWS V14.01,2013-04-24 00:51:00,
2013-04-23 17:56:00,60.1,23.2,30.12,North,0,2.2,2.2,24,0.00,,---,0.00,VWS V14.01,2013-04-24 00:56:00,
2013-04-23 18:01:00,58.6,22.9,30.12,North,0,2.5,2.5,25,0.00,,---,0.00,VWS V14.01,2013-04-24 01:01:00,
2013-04-23 18:06:00,58.1,22.5,30.12,NW,315,1.1,1.1,25,0.00,,---,0.00,VWS V14.01,2013-04-24 01:06:00,
2013-04-23 18:12:00,57.7,22.2,30.12,North,0,2.7,2.7,25,0.00,,---,0.00,VWS V14.01,2013-04-24 01:12:00,
2013-04-23 18:17:00,57.2,21.7,30.12,North,0,3.8,3.8,25,0.00,,---,0.00,VWS V14.01,2013-04-24 01:17:00,
2013-04-23 18:22:00,57.0,21.6,30.12,North,0,2.0,2.0,25,0.00,,---,0.00,VWS V14.01,2013-04-24 01:22:00,
2013-04-23 18:27:00,56.7,21.3,30.12,NW,315,1.3,1.3,25,0.00,,---,0.00,VWS V14.01,2013-04-24 01:27:00,
2013-04-23 18:32:00,57.2,21.7,30.12,North,0,2.5,2.5,25,0.00,,---,0.00,VWS V14.01,2013-04-24 01:32:00,
2013-04-23 18:37:00,57.4,21.9,30.12,North,0,3.4,3.4,25,0.00,,---,0.00,VWS V14.01,2013-04-24 01:37:00,
2013-04-23 18:42:00,56.8,21.4,30.12,NNE,22,2.5,2.5,25,0.00,,---,0.00,VWS V14.01,2013-04-24 01:42:00,
2013-04-23 18:47:00,56.5,21.1,30.12,NNW,338,0.0,0.0,25,0.00,,---,0.00,VWS V14.01,2013-04-24 01:47:00,
2013-04-23 18:52:00,56.1,20.8,30.12,North,0,0.0,0.0,25,0.00,,---,0.00,VWS V14.01,2013-04-24 01:52:00,
2013-04-23 18:57:00,55.8,21.4,30.12,NW,315,1.3,1.3,26,0.00,,---,0.00,VWS V14.01,2013-04-24 01:57:00,
2013-04-23 19:02:00,55.6,21.3,30.12,NNW,338,0.0,0.0,26,0.00,,---,0.00,VWS V14.01,2013-04-24 02:02:00,
2013-04-23 19:07:00,55.6,21.3,30.12,WNW,292,0.0,0.0,26,0.00,,---,0.00,VWS V14.01,2013-04-24 02:07:00,
2013-04-23 19:12:00,55.6,21.3,30.12,West,270,0.0,0.0,26,0.00,,---,0.00,VWS V14.01,2013-04-24 02:12:00,
2013-04-23 19:17:00,55.2,21.0,30.12,SSW,202,0.0,0.0,26,0.00,,---,0.00,VWS V14.01,2013-04-24 02:17:00,
2013-04-23 19:23:00,54.3,21.1,30.12,SSW,202,2.5,2.5,27,0.00,,---,0.00,VWS V14.01,2013-04-24 02:23:00,
2013-04-23 19:28:00,53.6,21.3,30.12,South,180,2.7,2.7,28,0.00,,---,0.00,VWS V14.01,2013-04-24 02:28:00,
2013-04-23 19:33:00,52.9,22.3,30.12,South,180,2.9,2.9,30,0.00,,---,0.00,VWS V14.01,2013-04-24 02:33:00,
2013-04-23 19:38:00,52.0,23.1,30.12,South,180,2.5,2.5,32,0.00,,---,0.00,VWS V14.01,2013-04-24 02:38:00,
2013-04-23 19:43:00,51.4,24.7,30.12,South,180,3.6,3.6,35,0.00,,---,0.00,VWS V14.01,2013-04-24 02:43:00,
2013-04-23 19:48:00,50.7,24.8,30.12,SSW,202,2.0,2.0,36,0.00,,---,0.00,VWS V14.01,2013-04-24 02:48:00,
2013-04-23 19:53:00,50.0,24.8,30.12,South,180,3.6,3.6,37,0.00,,---,0.00,VWS V14.01,2013-04-24 02:53:00,
2013-04-23 19:58:00,49.5,24.3,30.12,South,180,2.0,2.0,37,0.00,,---,0.00,VWS V14.01,2013-04-24 02:58:00,
2013-04-23 20:03:00,48.7,24.3,30.12,SSW,202,2.5,2.5,38,0.00,,---,0.00,VWS V14.01,2013-04-24 03:03:00,
2013-04-23 20:08:00,48.2,23.8,30.15,SSW,202,2.7,2.7,38,0.00,,---,0.00,VWS V14.01,2013-04-24 03:08:00,
2013-04-23 20:13:00,47.7,23.9,30.15,SSW,202,2.5,2.5,39,0.00,,---,0.00,VWS V14.01,2013-04-24 03:13:00,
2013-04-23 20:18:00,47.3,24.2,30.15,South,180,3.1,3.1,40,0.00,,---,0.00,VWS V14.01,2013-04-24 03:18:00,
2013-04-23 20:23:00,46.9,23.3,30.15,SSW,202,2.9,2.9,39,0.00,,---,0.00,VWS V14.01,2013-04-24 03:23:00,
2013-04-23 20:28:00,46.4,23.4,30.15,SSW,202,3.1,3.1,40,0.00,,---,0.00,VWS V14.01,2013-04-24 03:28:00,
2013-04-23 20:34:00,46.0,23.1,30.15,SSW,202,2.5,2.5,40,0.00,,---,0.00,VWS V14.01,2013-04-24 03:34:00,
2013-04-23 20:38:00,45.5,23.2,30.15,SSW,202,2.7,2.7,41,0.00,,---,0.00,VWS V14.01,2013-04-24 03:38:00,
2013-04-23 20:43:00,45.1,22.3,30.15,SSW,202,0.0,0.0,40,0.00,,---,0.00,VWS V14.01,2013-04-24 03:43:00,
2013-04-23 20:49:00,44.2,22.0,30.15,South,180,0.0,0.0,41,0.00,,---,0.00,VWS V14.01,2013-04-24 03:49:00,
2013-04-23 20:54:00,43.7,22.1,30.15,South,180,0.0,0.0,42,0.00,,---,0.00,VWS V14.01,2013-04-24 03:54:00,
2013-04-23 20:59:00,43.3,21.8,30.15,South,180,0.0,0.0,42,0.00,,---,0.00,VWS V14.01,2013-04-24 03:59:00,
2013-04-23 21:01:00,43.2,22.2,30.15,South,180,0.0,0.0,43,0.00,,---,0.00,VWS V14.01,2013-04-24 04:01:00,
2013-04-23 21:02:00,43.2,22.2,30.15,South,180,0.0,0.0,43,0.00,,---,0.00,VWS V14.01,2013-04-24 04:02:00,
2013-04-23 21:03:00,43.2,22.2,30.15,South,180,0.0,0.0,43,0.00,,---,0.00,VWS V14.01,2013-04-24 04:03:00,
2013-04-23 21:08:00,42.4,22.1,30.18,SSW,202,0.0,0.0,44,0.00,,---,0.00,VWS V14.01,2013-04-24 04:08:00,
2013-04-23 21:13:00,41.9,21.6,30.18,SSW,202,0.0,0.0,44,0.00,,---,0.00,VWS V14.01,2013-04-24 04:13:00,
2013-04-23 21:18:00,41.7,22.0,30.18,SSW,202,0.0,0.0,45,0.00,,---,0.00,VWS V14.01,2013-04-24 04:18:00,
2013-04-23 21:23:00,41.7,22.0,30.18,SSW,202,0.0,0.0,45,0.00,,---,0.00,VWS V14.01,2013-04-24 04:23:00,
2013-04-23 21:28:00,41.5,21.8,30.18,SSW,202,0.0,0.0,45,0.00,,---,0.00,VWS V14.01,2013-04-24 04:28:00,
2013-04-23 21:33:00,41.4,22.1,30.18,SSW,202,0.0,0.0,46,0.00,,---,0.00,VWS V14.01,2013-04-24 04:33:00,
2013-04-23 21:38:00,40.8,22.7,30.18,SSW,202,0.0,0.0,48,0.00,,---,0.00,VWS V14.01,2013-04-24 04:38:00,
2013-04-23 21:43:00,41.0,22.8,30.18,SSW,202,0.0,0.0,48,0.00,,---,0.00,VWS V14.01,2013-04-24 04:43:00,
2013-04-23 21:48:00,41.0,22.8,30.18,SSW,202,0.0,0.0,48,0.00,,---,0.00,VWS V14.01,2013-04-24 04:48:00,
2013-04-23 21:53:00,40.6,23.0,30.18,SSW,202,0.0,0.0,49,0.00,,---,0.00,VWS V14.01,2013-04-24 04:53:00,
2013-04-23 21:58:00,40.6,22.5,30.18,SW,225,0.0,0.0,48,0.00,,---,0.00,VWS V14.01,2013-04-24 04:58:00,
2013-04-23 22:03:00,40.5,23.3,30.18,SW,225,0.0,0.0,50,0.00,,---,0.00,VWS V14.01,2013-04-24 05:03:00,
2013-04-23 22:08:00,40.1,23.0,30.15,South,180,0.0,0.0,50,0.00,,---,0.00,VWS V14.01,2013-04-24 05:08:00,
2013-04-23 22:13:00,39.9,22.8,30.15,SSW,202,0.0,0.0,50,0.00,,---,0.00,VWS V14.01,2013-04-24 05:13:00,
2013-04-23 22:19:00,40.1,23.4,30.15,SSW,202,2.2,2.2,51,0.00,,---,0.00,VWS V14.01,2013-04-24 05:19:00,
2013-04-23 22:24:00,39.9,22.8,30.18,SSW,202,0.0,0.0,50,0.00,,---,0.00,VWS V14.01,2013-04-24 05:24:00,
2013-04-23 22:29:00,39.4,22.3,30.18,SSW,202,0.0,0.0,50,0.00,,---,0.00,VWS V14.01,2013-04-24 05:29:00,
2013-04-23 22:34:00,39.0,22.4,30.18,SSW,202,0.0,0.0,51,0.00,,---,0.00,VWS V14.01,2013-04-24 05:34:00,
2013-04-23 22:39:00,39.0,22.0,30.18,SW,225,0.0,0.0,50,0.00,,---,0.00,VWS V14.01,2013-04-24 05:39:00,
2013-04-23 22:44:00,38.8,22.7,30.18,South,180,0.0,0.0,52,0.00,,---,0.00,VWS V14.01,2013-04-24 05:44:00,
2013-04-23 22:49:00,38.5,22.4,30.18,SE,135,0.0,0.0,52,0.00,,---,0.00,VWS V14.01,2013-04-24 05:49:00,
2013-04-23 22:54:00,38.5,22.9,30.18,SSE,158,0.0,0.0,53,0.00,,---,0.00,VWS V14.01,2013-04-24 05:54:00,
2013-04-23 22:59:00,38.1,22.5,30.18,South,180,0.0,0.0,53,0.00,,---,0.00,VWS V14.01,2013-04-24 05:59:00,
2013-04-23 23:04:00,37.9,21.9,30.18,SSW,202,0.0,0.0,52,0.00,,---,0.00,VWS V14.01,2013-04-24 06:04:00,
2013-04-23 23:09:00,37.9,21.9,30.18,SW,225,0.0,0.0,52,0.00,,---,0.00,VWS V14.01,2013-04-24 06:09:00,
2013-04-23 23:14:00,38.1,23.4,30.18,SW,225,0.0,0.0,55,0.00,,---,0.00,VWS V14.01,2013-04-24 06:14:00,
2013-04-23 23:19:00,37.8,22.2,30.18,SW,225,0.0,0.0,53,0.00,,---,0.00,VWS V14.01,2013-04-24 06:19:00,
2013-04-23 23:24:00,37.9,22.8,30.18,SW,225,0.0,0.0,54,0.00,,---,0.00,VWS V14.01,2013-04-24 06:24:00,
2013-04-23 23:29:00,37.6,23.3,30.18,SW,225,0.0,0.0,56,0.00,,---,0.00,VWS V14.01,2013-04-24 06:29:00,
2013-04-23 23:34:00,37.4,22.7,30.18,SSW,202,0.0,0.0,55,0.00,,---,0.00,VWS V14.01,2013-04-24 06:34:00,
2013-04-23 23:39:00,37.2,23.8,30.18,SSW,202,0.0,0.0,58,0.00,,---,0.00,VWS V14.01,2013-04-24 06:39:00,
2013-04-23 23:44:00,36.9,23.1,30.18,SSW,202,0.0,0.0,57,0.00,,---,0.00,VWS V14.01,2013-04-24 06:44:00,
2013-04-23 23:49:00,36.7,22.5,30.21,SSW,202,0.0,0.0,56,0.00,,---,0.00,VWS V14.01,2013-04-24 06:49:00,
2013-04-23 23:54:00,36.7,22.5,30.21,SSW,202,0.0,0.0,56,0.00,,---,0.00,VWS V14.01,2013-04-24 06:54:00,